createdAt,value
2022-11-03T00:01:49.061Z,101759.03
2022-11-03T00:04:19.315Z,101761.75
2022-11-03T00:06:48.986Z,101759.09
2022-11-03T00:09:18.601Z,101754.00
2022-11-03T00:11:48.206Z,101755.72
2022-11-03T00:14:15.849Z,101761.81
2022-11-03T00:16:44.066Z,101760.16
2022-11-03T00:19:15.158Z,101759.28
2022-11-03T00:21:42.822Z,101757.56
2022-11-03T00:24:11.062Z,101761.00
2022-11-03T00:26:39.335Z,101773.06
2022-11-03T00:29:09.345Z,101773.25
2022-11-03T00:31:38.984Z,101755.78
2022-11-03T00:34:07.237Z,101751.41
2022-11-03T00:36:43.555Z,101752.25
2022-11-03T00:39:11.920Z,101756.56
2022-11-03T00:41:40.321Z,101747.91
2022-11-03T00:44:08.465Z,101746.13
2022-11-03T00:46:36.065Z,101751.28
2022-11-03T00:49:08.377Z,101746.91
2022-11-03T00:51:37.535Z,101748.66
2022-11-03T00:56:51.587Z,101749.63
2022-11-03T00:59:20.118Z,101743.66
2022-11-03T01:01:48.548Z,101731.63
2022-11-03T01:04:35.914Z,101722.19
2022-11-03T01:07:06.499Z,101727.53
2022-11-03T01:12:33.453Z,101725.13
2022-11-03T01:15:01.561Z,101720.06
2022-11-03T01:17:29.510Z,101718.38
2022-11-03T01:19:57.446Z,101717.63
2022-11-03T01:22:27.820Z,101714.16
2022-11-03T01:24:55.449Z,101725.50
2022-11-03T01:27:23.655Z,101718.59
2022-11-03T01:29:56.030Z,101718.72
2022-11-03T01:32:23.568Z,101708.38
2022-11-03T01:34:51.153Z,101710.16
2022-11-03T01:37:18.587Z,101712.81
2022-11-03T01:39:47.678Z,101704.16
2022-11-03T01:42:15.151Z,101719.91
2022-11-03T01:44:47.776Z,101705.31
2022-11-03T01:47:21.952Z,101715.03
2022-11-03T01:49:53.816Z,101719.47
2022-11-03T01:52:25.618Z,101713.47
2022-11-03T01:54:59.956Z,101718.88
2022-11-03T01:57:35.134Z,101713.91
2022-11-03T02:00:04.240Z,101709.78
2022-11-03T02:02:40.791Z,101723.81
2022-11-03T02:05:11.314Z,101724.84
2022-11-03T02:07:44.346Z,101723.16
2022-11-03T02:10:13.758Z,101718.00
2022-11-03T02:12:41.920Z,101710.28
2022-11-03T02:15:12.423Z,101720.78
2022-11-03T02:17:42.235Z,101710.59
2022-11-03T02:20:14.536Z,101708.13
2022-11-03T02:23:00.370Z,101701.28
2022-11-03T02:25:54.149Z,101703.22
2022-11-03T02:28:25.424Z,101701.63
2022-11-03T02:31:02.561Z,101696.59
2022-11-03T02:36:37.895Z,101688.31
2022-11-03T02:39:11.439Z,101673.69
2022-11-03T02:41:44.535Z,101671.25
2022-11-03T02:44:18.477Z,101670.53
2022-11-03T02:46:49.975Z,101659.38
2022-11-03T02:49:22.225Z,101655.06
2022-11-03T02:51:50.293Z,101652.53
2022-11-03T02:54:26.002Z,101662.16
2022-11-03T02:57:08.346Z,101663.97
2022-11-03T02:59:46.715Z,101660.53
2022-11-03T03:02:24.623Z,101655.34
2022-11-03T03:04:56.616Z,101660.66
2022-11-03T03:07:30.388Z,101654.69
2022-11-03T03:12:51.591Z,101652.16
2022-11-03T03:18:13.911Z,101645.06
2022-11-03T03:20:48.649Z,101642.41
2022-11-03T03:26:07.005Z,101642.34
2022-11-03T03:28:43.310Z,101644.13
2022-11-03T03:31:14.431Z,101652.00
2022-11-03T03:33:46.639Z,101642.66
2022-11-03T03:36:19.360Z,101643.69
2022-11-03T03:38:53.471Z,101642.94
2022-11-03T03:41:25.533Z,101642.09
2022-11-03T03:44:00.187Z,101633.47
2022-11-03T03:46:36.090Z,101630.88
2022-11-03T03:49:05.283Z,101623.03
2022-11-03T03:51:35.663Z,101636.00
2022-11-03T03:54:05.307Z,101630.81
2022-11-03T03:56:36.969Z,101619.56
2022-11-03T03:59:05.858Z,101623.09
2022-11-03T04:01:34.314Z,101631.72
2022-11-03T04:04:02.158Z,101630.88
2022-11-03T04:06:29.917Z,101618.78
2022-11-03T04:08:58.737Z,101626.56
2022-11-03T04:11:43.989Z,101621.31
2022-11-03T04:14:33.761Z,101625.69
2022-11-03T04:17:19.108Z,101626.41
2022-11-03T04:20:04.749Z,101628.94
2022-11-03T04:22:34.360Z,101631.53
2022-11-03T04:25:01.997Z,101633.16
2022-11-03T04:27:34.299Z,101623.63
2022-11-03T04:30:16.324Z,101622.75
2022-11-03T04:32:47.595Z,101623.63
2022-11-03T04:35:19.328Z,101622.81
2022-11-03T04:37:55.118Z,101613.34
2022-11-03T04:40:24.434Z,101616.00
2022-11-03T04:42:53.897Z,101607.44
2022-11-03T04:45:30.781Z,101605.78
2022-11-03T04:48:00.852Z,101606.78
2022-11-03T04:50:28.908Z,101608.56
2022-11-03T04:52:59.581Z,101595.56
2022-11-03T04:55:27.775Z,101603.31
2022-11-03T04:57:59.142Z,101597.22
2022-11-03T05:00:27.997Z,101588.59
2022-11-03T05:05:38.536Z,101591.97
2022-11-03T05:08:09.727Z,101590.19
2022-11-03T05:10:37.230Z,101584.22
2022-11-03T05:13:05.032Z,101575.72
2022-11-03T05:15:52.917Z,101575.84
2022-11-03T05:18:57.252Z,101567.34
2022-11-03T05:21:28.791Z,101564.03
2022-11-03T05:23:59.488Z,101567.69
2022-11-03T05:26:30.586Z,101568.59
2022-11-03T05:29:02.827Z,101562.63
2022-11-03T05:31:33.359Z,101566.09
2022-11-03T05:34:02.638Z,101544.56
2022-11-03T05:36:31.597Z,101547.25
2022-11-03T05:39:02.464Z,101545.66
2022-11-03T05:41:32.612Z,101537.09
2022-11-03T05:44:06.283Z,101539.75
2022-11-03T05:46:36.528Z,101537.25
2022-11-03T05:49:08.249Z,101529.59
2022-11-03T05:51:41.045Z,101534.00
2022-11-03T05:54:19.676Z,101532.38
2022-11-03T05:56:48.396Z,101538.44
2022-11-03T05:59:21.235Z,101537.66
2022-11-03T06:41:33.067Z,101539.38
2022-11-03T06:44:03.156Z,101540.94
2022-11-03T06:46:31.700Z,101532.19
2022-11-03T06:49:01.343Z,101536.41
2022-11-03T06:51:30.402Z,101540.53
2022-11-03T06:54:00.934Z,101541.28
2022-11-03T06:56:36.209Z,101534.28
2022-11-03T06:59:03.850Z,101538.56
2022-11-03T07:01:33.313Z,101529.91
2022-11-03T07:04:03.293Z,101534.16
2022-11-03T07:06:35.367Z,101523.72
2022-11-03T07:09:05.803Z,101515.81
2022-11-03T07:11:54.168Z,101517.50
2022-11-03T07:14:23.889Z,101512.19
2022-11-03T07:16:59.981Z,101511.25
2022-11-03T07:19:34.345Z,101505.13
2022-11-03T07:22:10.056Z,101507.59
2022-11-03T07:24:42.230Z,101492.00
2022-11-03T07:27:21.278Z,101490.25
2022-11-03T07:29:51.844Z,101493.66
2022-11-03T07:32:22.036Z,101494.44
2022-11-03T07:34:54.014Z,101506.59
2022-11-03T07:37:25.499Z,101500.50
2022-11-03T07:40:19.417Z,101491.78
2022-11-03T07:42:48.355Z,101501.28
2022-11-03T07:46:13.496Z,101502.91
2022-11-03T07:48:45.133Z,101506.16
2022-11-03T07:51:19.578Z,101497.38
2022-11-03T07:53:49.460Z,101501.56
2022-11-03T07:56:21.599Z,101500.50
2022-11-03T07:58:53.106Z,101499.47
2022-11-03T08:01:28.770Z,101502.84
2022-11-03T08:04:01.237Z,101494.94
2022-11-03T08:06:28.890Z,101492.19
2022-11-03T08:08:56.418Z,101482.38
2022-11-03T08:11:27.945Z,101475.22
2022-11-03T08:13:58.522Z,101479.28
2022-11-03T08:16:29.283Z,101472.94
2022-11-03T08:18:56.785Z,101469.97
2022-11-03T08:21:24.564Z,101476.66
2022-11-03T08:23:52.831Z,101466.91
2022-11-03T08:26:23.793Z,101459.88
2022-11-03T08:28:52.172Z,101464.88
2022-11-03T08:31:21.048Z,101456.94
2022-11-03T08:33:48.502Z,101462.75
2022-11-03T08:36:16.157Z,101454.81
2022-11-03T08:38:43.792Z,101452.00
2022-11-03T08:41:11.258Z,101444.91
2022-11-03T08:43:38.767Z,101448.97
2022-11-03T08:46:16.719Z,101430.53
2022-11-03T08:48:47.655Z,101437.25
2022-11-03T08:51:16.828Z,101429.25
2022-11-03T08:53:45.320Z,101429.78
2022-11-03T08:56:15.257Z,101420.00
2022-11-03T08:58:45.132Z,101426.66
2022-11-03T09:01:14.302Z,101409.78
2022-11-03T09:03:43.017Z,101412.94
2022-11-03T09:06:12.717Z,101403.06
2022-11-03T09:11:29.223Z,101398.78
2022-11-03T09:13:58.104Z,101397.56
2022-11-03T09:16:32.423Z,101396.38
2022-11-03T09:19:04.023Z,101390.78
2022-11-03T09:21:33.943Z,101389.47
2022-11-03T09:24:04.815Z,101390.81
2022-11-03T09:26:32.623Z,101391.34
2022-11-03T09:29:00.237Z,101391.69
2022-11-03T09:31:29.647Z,101395.59
2022-11-03T09:33:57.613Z,101389.97
2022-11-03T09:36:25.489Z,101377.50
2022-11-03T09:38:54.792Z,101378.03
2022-11-03T09:41:44.306Z,101372.31
2022-11-03T09:44:12.633Z,101355.13
2022-11-03T09:46:40.667Z,101355.38
2022-11-03T09:49:08.808Z,101335.56
2022-11-03T09:51:38.764Z,101344.38
2022-11-03T09:54:14.888Z,101335.91
2022-11-03T09:56:47.278Z,101337.69
2022-11-03T09:59:17.376Z,101331.69
2022-11-03T10:01:49.223Z,101328.88
2022-11-03T10:04:21.550Z,101322.53
2022-11-03T10:06:50.372Z,101321.44
2022-11-03T10:09:24.448Z,101312.25
2022-11-03T10:12:02.769Z,101317.59
2022-11-03T10:14:57.811Z,101319.56
2022-11-03T10:17:31.573Z,101314.03
2022-11-03T10:20:03.217Z,101312.44
2022-11-03T10:22:31.258Z,101298.09
2022-11-03T10:25:28.691Z,101299.13
2022-11-03T10:28:15.165Z,101288.94
2022-11-03T10:31:13.693Z,101292.19
2022-11-03T10:33:45.758Z,101276.03
2022-11-03T10:36:28.612Z,101270.72
2022-11-03T10:38:59.267Z,101271.53
2022-11-03T10:41:30.864Z,101267.94
2022-11-03T10:44:05.801Z,101266.69
2022-11-03T10:46:51.512Z,101265.44
2022-11-03T10:49:22.070Z,101261.03
2022-11-03T10:51:52.494Z,101243.91
2022-11-03T10:54:25.517Z,101249.38
2022-11-03T10:56:55.897Z,101242.50
2022-11-03T10:59:45.677Z,101234.47
2022-11-03T11:09:00.283Z,101222.16
2022-11-03T11:12:34.270Z,101228.50
2022-11-03T11:15:40.345Z,101217.38
2022-11-03T11:18:08.270Z,101210.94
2022-11-03T11:20:38.143Z,101212.88
2022-11-03T11:23:53.270Z,101203.22
2022-11-03T11:26:41.945Z,101188.88
2022-11-03T11:29:43.855Z,101189.84
2022-11-03T11:32:50.307Z,101192.63
2022-11-03T11:36:13.938Z,101183.03
2022-11-03T11:42:10.925Z,101168.78
2022-11-03T11:44:50.305Z,101165.69
2022-11-03T11:47:29.169Z,101158.16
2022-11-03T11:50:22.822Z,101155.91
2022-11-03T11:52:58.168Z,101144.06
2022-11-03T11:55:38.331Z,101146.22
2022-11-03T11:58:14.302Z,101135.94
2022-11-03T12:00:59.954Z,101117.78
2022-11-03T12:03:35.858Z,101130.19
2022-11-03T12:06:05.616Z,101128.56
2022-11-03T12:08:34.523Z,101120.66
2022-11-03T12:11:07.652Z,101121.63
2022-11-03T12:13:49.407Z,101115.16
2022-11-03T12:16:34.905Z,101112.66
2022-11-03T12:19:39.024Z,101108.69
2022-11-03T12:22:13.246Z,101099.28
2022-11-03T12:24:51.274Z,101099.28
2022-11-03T12:27:44.089Z,101090.66
2022-11-03T12:30:20.716Z,101089.13
2022-11-03T12:32:56.543Z,101090.19
2022-11-03T12:35:24.924Z,101094.50
2022-11-03T12:37:55.275Z,101093.53
2022-11-03T12:40:27.315Z,101086.16
2022-11-03T12:42:56.020Z,101081.97
2022-11-03T12:45:25.811Z,101083.88
2022-11-03T12:48:00.094Z,101082.06
2022-11-03T12:50:33.363Z,101068.22
2022-11-03T12:53:18.508Z,101067.53
2022-11-03T12:55:46.583Z,101061.53
2022-11-03T12:58:15.005Z,101059.75
2022-11-03T13:00:48.084Z,101054.28
2022-11-03T13:03:22.508Z,101047.00
2022-11-03T13:05:53.849Z,101056.66
2022-11-03T13:08:27.537Z,101046.16
2022-11-03T13:10:55.845Z,101046.28
2022-11-03T13:13:24.118Z,101049.03
2022-11-03T13:15:53.172Z,101038.88
2022-11-03T13:18:37.069Z,101042.34
2022-11-03T13:21:09.397Z,101032.91
2022-11-03T13:23:39.345Z,101018.94
2022-11-03T13:26:09.778Z,101009.28
2022-11-03T13:28:38.222Z,100999.50
2022-11-03T13:31:07.740Z,100994.97
2022-11-03T13:33:36.088Z,101004.53
2022-11-03T13:36:12.155Z,100992.47
2022-11-03T13:38:45.708Z,100981.13
2022-11-03T13:44:16.870Z,100972.63
2022-11-03T13:46:46.973Z,100983.66
2022-11-03T14:05:29.789Z,100925.53
2022-11-03T14:08:13.723Z,100928.41
2022-11-03T14:10:48.701Z,100933.53
2022-11-03T14:13:23.727Z,100931.84
2022-11-03T14:15:56.477Z,100929.22
2022-11-03T14:18:34.888Z,100927.66
2022-11-03T14:24:16.685Z,100915.88
2022-11-03T14:26:48.756Z,100915.97
2022-11-03T14:29:17.959Z,100913.59
2022-11-03T14:31:48.799Z,100913.84
2022-11-03T14:37:16.445Z,100901.91
2022-11-03T14:39:47.097Z,100891.53
2022-11-03T14:42:17.986Z,100890.97
2022-11-03T14:44:50.817Z,100887.59
2022-11-03T14:47:21.975Z,100878.91
2022-11-03T14:49:59.764Z,100879.13
2022-11-03T14:52:29.376Z,100872.47
2022-11-03T14:54:59.318Z,100856.97
2022-11-03T14:57:44.087Z,100854.78
2022-11-03T15:00:14.364Z,100842.88
2022-11-03T15:02:42.878Z,100834.53
2022-11-03T15:08:15.862Z,100834.41
2022-11-03T15:10:44.456Z,100825.22
2022-11-03T15:13:56.108Z,100826.53
2022-11-03T15:16:30.392Z,100819.25
2022-11-03T15:19:13.538Z,100812.72
2022-11-03T15:21:42.882Z,100807.09
2022-11-03T15:27:20.284Z,100804.47
2022-11-03T15:29:48.825Z,100796.94
2022-11-03T15:32:21.908Z,100788.50
2022-11-03T15:34:50.221Z,100790.50
2022-11-03T15:37:18.904Z,100785.72
2022-11-03T15:39:47.214Z,100795.50
2022-11-03T15:42:16.975Z,100799.16
2022-11-03T15:44:47.279Z,100785.47
2022-11-03T15:47:29.855Z,100783.19
2022-11-03T15:50:01.321Z,100785.00
2022-11-03T15:52:29.988Z,100776.66
2022-11-03T15:54:57.546Z,100768.16
2022-11-03T15:57:25.084Z,100765.06
2022-11-03T15:59:55.296Z,100766.97
2022-11-03T16:02:40.702Z,100754.09
2022-11-03T16:05:11.195Z,100743.84
2022-11-03T16:07:38.917Z,100744.94
2022-11-03T16:10:07.447Z,100730.38
2022-11-03T16:12:36.050Z,100716.69
2022-11-03T16:15:03.579Z,100712.66
2022-11-03T16:17:31.116Z,100707.66
2022-11-03T16:19:58.706Z,100704.31
2022-11-03T16:22:27.617Z,100701.03
2022-11-03T16:24:55.378Z,100691.75
2022-11-03T16:27:22.785Z,100691.03
2022-11-03T16:29:50.444Z,100684.34
2022-11-03T16:32:17.919Z,100681.84
2022-11-03T16:35:11.991Z,100685.66
2022-11-03T16:37:42.976Z,100686.72
2022-11-03T16:40:16.356Z,100680.88
2022-11-03T16:42:46.806Z,100674.06
2022-11-03T16:45:18.467Z,100679.41
2022-11-03T16:47:58.779Z,100678.69
2022-11-03T16:50:26.356Z,100673.56
2022-11-03T16:52:55.132Z,100663.34
2022-11-03T16:55:23.130Z,100657.28
2022-11-03T16:57:50.806Z,100663.59
2022-11-03T17:00:21.155Z,100654.16
2022-11-03T17:02:49.176Z,100644.75
2022-11-03T17:05:18.792Z,100643.34
2022-11-03T17:07:51.800Z,100645.22
2022-11-03T17:10:22.973Z,100642.94
2022-11-03T17:12:50.516Z,100648.19
2022-11-03T17:15:18.307Z,100633.41
2022-11-03T17:17:46.783Z,100637.81
2022-11-03T17:20:14.831Z,100616.19
2022-11-03T17:22:42.275Z,100624.25
2022-11-03T17:25:11.934Z,100619.75
2022-11-03T17:27:44.525Z,100619.84
2022-11-03T17:30:17.292Z,100614.75
2022-11-03T17:32:45.178Z,100606.28
2022-11-03T17:35:19.006Z,100597.63
2022-11-03T17:37:46.609Z,100602.97
2022-11-03T17:40:16.623Z,100600.56
2022-11-03T17:42:45.555Z,100591.03
2022-11-03T17:45:13.940Z,100589.28
2022-11-03T17:47:41.601Z,100590.94
2022-11-03T17:50:13.809Z,100583.31
2022-11-03T17:52:41.618Z,100576.22
2022-11-03T17:55:18.119Z,100568.50
2022-11-03T17:57:47.501Z,100569.31
2022-11-03T18:00:17.941Z,100563.25
2022-11-03T18:02:46.384Z,100552.81
2022-11-03T18:05:21.938Z,100551.13
2022-11-03T18:07:50.361Z,100550.19
2022-11-03T18:10:18.006Z,100545.78
2022-11-03T18:13:08.093Z,100549.34
2022-11-03T18:15:38.366Z,100544.00
2022-11-03T18:18:14.560Z,100526.66
2022-11-03T18:20:50.347Z,100521.44
2022-11-03T18:23:22.412Z,100517.25
2022-11-03T18:25:51.082Z,100510.50
2022-11-03T18:28:20.379Z,100494.91
2022-11-03T18:30:50.496Z,100495.97
2022-11-03T18:33:23.389Z,100491.69
2022-11-03T18:35:51.124Z,100475.16
2022-11-03T18:38:18.903Z,100460.31
2022-11-03T18:40:46.367Z,100455.22
2022-11-03T18:43:15.846Z,100447.50
2022-11-03T18:45:45.274Z,100440.59
2022-11-03T18:48:19.215Z,100431.19
2022-11-03T18:50:49.292Z,100422.63
2022-11-03T18:53:18.418Z,100417.53
2022-11-03T18:55:46.284Z,100407.06
2022-11-03T18:58:18.329Z,100397.47
2022-11-03T19:00:47.321Z,100401.84
2022-11-03T19:03:17.885Z,100392.38
2022-11-03T19:05:46.273Z,100380.22
2022-11-03T19:08:19.351Z,100367.16
2022-11-03T19:10:47.276Z,100356.72
2022-11-03T19:13:17.851Z,100352.31
2022-11-03T19:15:47.994Z,100357.53
2022-11-03T19:18:15.630Z,100358.38
2022-11-03T19:20:43.137Z,100347.09
2022-11-03T19:23:10.764Z,100355.78
2022-11-03T19:25:43.070Z,100353.88
2022-11-03T19:28:14.123Z,100350.44
2022-11-03T19:30:42.212Z,100350.28
2022-11-03T19:33:18.067Z,100344.34
2022-11-03T19:35:46.376Z,100333.78
2022-11-03T19:38:16.296Z,100343.31
2022-11-03T19:41:04.983Z,100335.34
2022-11-03T19:43:34.585Z,100323.22
2022-11-03T19:46:03.036Z,100327.63
2022-11-03T19:48:34.742Z,100325.00
2022-11-03T19:51:03.245Z,100321.44
2022-11-03T19:53:31.013Z,100324.16
2022-11-03T19:55:59.125Z,100301.50
2022-11-03T19:58:29.253Z,100300.53
2022-11-03T20:00:57.442Z,100297.09
2022-11-03T20:03:25.687Z,100291.88
2022-11-03T20:05:57.455Z,100287.56
2022-11-03T20:08:26.776Z,100283.31
2022-11-03T20:10:54.764Z,100282.34
2022-11-03T20:13:24.434Z,100272.97
2022-11-03T20:15:57.349Z,100270.59
2022-11-03T20:18:28.055Z,100266.31
2022-11-03T20:20:57.404Z,100275.25
2022-11-03T20:23:29.721Z,100267.41
2022-11-03T20:25:57.841Z,100273.56
2022-11-03T20:28:28.302Z,100273.56
2022-11-03T20:30:59.695Z,100266.69
2022-11-03T20:33:27.376Z,100277.16
2022-11-03T20:35:57.116Z,100276.28
2022-11-03T20:38:27.678Z,100269.19
2022-11-03T20:40:58.837Z,100268.34
2022-11-03T20:43:29.127Z,100250.16
2022-11-03T20:45:57.286Z,100259.91
2022-11-03T20:48:25.227Z,100247.78
2022-11-03T20:50:54.652Z,100254.09
2022-11-03T20:53:27.178Z,100255.88
2022-11-03T20:55:54.824Z,100256.00
2022-11-03T20:58:22.449Z,100254.34
2022-11-03T21:00:50.348Z,100246.63
2022-11-03T21:03:45.651Z,100237.09
2022-11-03T21:06:08.934Z,100245.09
2022-11-03T21:08:37.839Z,100234.88
2022-11-03T21:11:27.422Z,100241.16
2022-11-03T21:13:57.440Z,100230.00
2022-11-03T21:16:43.487Z,100240.56
2022-11-03T21:19:34.551Z,100234.50
2022-11-03T21:22:02.655Z,100225.00
2022-11-03T21:24:31.511Z,100227.72
2022-11-03T21:26:59.015Z,100229.63
2022-11-03T21:29:57.897Z,100232.25
2022-11-03T21:32:16.408Z,100226.31
2022-11-03T21:34:44.503Z,100229.88
2022-11-03T21:37:15.250Z,100221.44
2022-11-03T21:39:44.701Z,100207.53
2022-11-03T21:42:31.306Z,100208.50
2022-11-03T21:44:59.845Z,100208.63
2022-11-03T21:47:27.818Z,100192.13
2022-11-03T21:49:54.507Z,100195.56
2022-11-03T21:52:32.052Z,100196.50
2022-11-03T21:55:02.616Z,100204.44
2022-11-03T21:57:30.700Z,100188.06
2022-11-03T21:59:59.151Z,100201.25
2022-11-03T22:02:29.987Z,100193.53
2022-11-03T22:04:58.278Z,100193.66
2022-11-03T22:07:25.914Z,100198.97
2022-11-03T22:09:53.491Z,100193.88
2022-11-03T22:12:22.428Z,100188.78
2022-11-03T22:15:07.354Z,100180.13
2022-11-03T22:17:35.034Z,100185.34
2022-11-03T22:20:20.129Z,100179.41
2022-11-03T22:23:13.957Z,100179.28
2022-11-03T22:26:07.287Z,100190.66
2022-11-03T22:28:36.125Z,100189.03
2022-11-03T22:31:27.736Z,100181.19
2022-11-03T22:34:13.224Z,100180.22
2022-11-03T22:36:40.777Z,100165.53
2022-11-03T22:39:26.072Z,100164.69
2022-11-03T22:42:11.132Z,100160.44
2022-11-03T22:44:57.786Z,100163.97
2022-11-03T22:47:25.210Z,100150.19
2022-11-03T22:49:52.716Z,100158.84
2022-11-03T22:52:20.222Z,100158.13
2022-11-03T22:54:47.736Z,100157.31
2022-11-03T22:57:15.233Z,100155.53
2022-11-03T22:59:44.047Z,100154.69
2022-11-03T23:02:11.652Z,100140.81
2022-11-03T23:04:39.103Z,100134.75
2022-11-03T23:07:06.665Z,100128.72
2022-11-03T23:09:34.222Z,100122.75
2022-11-03T23:12:01.769Z,100130.59
2022-11-03T23:14:49.514Z,100130.59
2022-11-03T23:17:18.348Z,100136.66
2022-11-03T23:20:09.061Z,100130.72
2022-11-03T23:22:36.474Z,100125.38
2022-11-03T23:25:03.243Z,100136.78
2022-11-03T23:27:30.726Z,100121.22
2022-11-03T23:29:58.197Z,100116.00
2022-11-03T23:32:26.950Z,100115.16
2022-11-03T23:34:54.532Z,100109.25
2022-11-03T23:37:21.972Z,100120.66
2022-11-03T23:39:49.410Z,100112.69
2022-11-03T23:42:16.886Z,100105.81
2022-11-03T23:45:02.008Z,100106.63
2022-11-03T23:47:48.631Z,100107.59
2022-11-03T23:50:16.321Z,100107.72
2022-11-03T23:52:43.789Z,100116.38
2022-11-03T23:55:11.354Z,100096.41
2022-11-03T23:57:56.314Z,100107.72
